Time;durP1;ratioP1;P1;durP2;ratioP2;P2;SDS_P1;SDS_P2;PMS_P1;PMS_P2;Temp;Humidity;BMP_temperature;BMP_pressure;BME280_temperature;BME280_humidity;BME280_pressure;Samples;Min_cycle;Max_cycle;Signal;HPM_P1;HPM_P2
2022/05/24 00:01:39;;;;;;;18.85;15.77;;;;;;;;;;5038964;28;20204;-73
2022/05/24 00:04:04;;;;;;;19.73;16.47;;;;;;;;;;5048515;28;20202;-72
2022/05/24 00:06:30;;;;;;;21.33;17.97;;;;;;;;;;5049333;28;20482;-73
2022/05/24 00:08:56;;;;;;;24.17;19.15;;;;;;;;;;5049210;28;20531;-73
2022/05/24 00:11:21;;;;;;;27.10;19.40;;;;;;;;;;5049375;28;20687;-73
2022/05/24 00:13:46;;;;;;;31.08;19.23;;;;;;;;;;5046495;28;20285;-73
2022/05/24 00:16:11;;;;;;;23.27;18.02;;;;;;;;;;5040162;28;20615;-73
2022/05/24 00:18:37;;;;;;;27.80;19.10;;;;;;;;;;5034503;28;20189;-73
2022/05/24 00:21:03;;;;;;;26.90;18.73;;;;;;;;;;5043856;28;20186;-73
2022/05/24 00:23:29;;;;;;;24.20;18.83;;;;;;;;;;5047853;28;20678;-73
2022/05/24 00:25:56;;;;;;;30.42;19.75;;;;;;;;;;5032609;28;20216;-73
2022/05/24 00:28:23;;;;;;;24.88;18.90;;;;;;;;;;5047134;28;20235;-73
2022/05/24 00:30:49;;;;;;;24.30;19.42;;;;;;;;;;5040016;28;20178;-73
2022/05/24 00:33:14;;;;;;;23.73;18.33;;;;;;;;;;5041378;28;20201;-73
2022/05/24 00:35:40;;;;;;;29.55;18.23;;;;;;;;;;5040593;28;20623;-73
2022/05/24 00:38:07;;;;;;;23.67;17.05;;;;;;;;;;5043686;28;20244;-73
2022/05/24 00:40:44;;;;;;;30.75;18.42;;;;;;;;;;5039205;28;20174;-72
2022/05/24 00:43:13;;;;;;;22.38;14.35;;;;;;;;;;5038433;28;20194;-73
2022/05/24 00:45:47;;;;;;;22.48;13.18;;;;;;;;;;5046685;28;20178;-73
2022/05/24 00:48:22;;;;;;;23.98;13.02;;;;;;;;;;5045301;28;20181;-72
2022/05/24 00:50:49;;;;;;;20.17;11.25;;;;;;;;;;5049142;28;20200;-72
2022/05/24 00:53:18;;;;;;;17.23;10.32;;;;;;;;;;5048867;28;20575;-72
2022/05/24 00:55:46;;;;;;;15.60;9.75;;;;;;;;;;5044102;28;20205;-73
2022/05/24 00:58:31;;;;;;;16.13;9.68;;;;;;;;;;5045934;28;20640;-73
2022/05/24 01:00:59;;;;;;;13.68;8.88;;;;;;;;;;5044448;28;20177;-73
2022/05/24 01:03:24;;;;;;;15.27;8.48;;;;;;;;;;5047400;28;20193;-73
2022/05/24 01:05:50;;;;;;;16.40;9.20;;;;;;;;;;5025495;28;20173;-73
2022/05/24 01:08:15;;;;;;;15.75;9.52;;;;;;;;;;5047158;28;20208;-73
2022/05/24 01:10:42;;;;;;;12.27;8.23;;;;;;;;;;5050280;28;20246;-73
2022/05/24 01:13:10;;;;;;;15.02;7.63;;;;;;;;;;5042824;28;20328;-72
2022/05/24 01:15:36;;;;;;;18.27;7.30;;;;;;;;;;5046523;28;20614;-72
2022/05/24 01:18:02;;;;;;;13.90;7.43;;;;;;;;;;5042127;28;20174;-72
2022/05/24 01:20:27;;;;;;;11.60;7.32;;;;;;;;;;5044783;28;20178;-72
2022/05/24 01:23:05;;;;;;;12.20;7.10;;;;;;;;;;5049927;28;20213;-72
2022/05/24 01:25:36;;;;;;;14.53;8.13;;;;;;;;;;5049837;28;20173;-72
2022/05/24 01:28:04;;;;;;;10.82;7.03;;;;;;;;;;5026675;28;20181;-73
2022/05/24 01:30:29;;;;;;;16.88;8.88;;;;;;;;;;5043287;28;20664;-72
2022/05/24 01:38:24;;;;;;;15.07;9.32;;;;;;;;;;5042877;28;20307;-72
2022/05/24 01:40:51;;;;;;;15.40;9.07;;;;;;;;;;5043009;28;20188;-72
2022/05/24 01:43:17;;;;;;;14.85;8.52;;;;;;;;;;5043287;28;20675;-72
2022/05/24 01:45:46;;;;;;;16.98;9.98;;;;;;;;;;5047409;28;20203;-72
2022/05/24 01:48:14;;;;;;;18.87;8.87;;;;;;;;;;5046595;28;20189;-72
2022/05/24 01:50:40;;;;;;;13.93;8.73;;;;;;;;;;5050294;28;20605;-72
2022/05/24 01:53:09;;;;;;;14.40;8.48;;;;;;;;;;5041175;28;20225;-71
2022/05/24 01:55:37;;;;;;;12.83;7.70;;;;;;;;;;5025413;28;20269;-72
2022/05/24 01:58:04;;;;;;;12.50;7.27;;;;;;;;;;5048749;28;20186;-71
2022/05/24 02:00:30;;;;;;;13.27;8.07;;;;;;;;;;5043322;28;20174;-72
2022/05/24 02:02:55;;;;;;;13.48;7.25;;;;;;;;;;5046370;28;20208;-72
2022/05/24 02:05:28;;;;;;;12.20;7.17;;;;;;;;;;5042804;28;20178;-72
2022/05/24 02:07:53;;;;;;;15.43;7.90;;;;;;;;;;5050026;28;20667;-72
2022/05/24 02:10:19;;;;;;;14.07;7.30;;;;;;;;;;5052507;28;20682;-72
2022/05/24 02:12:46;;;;;;;17.42;7.85;;;;;;;;;;5051670;28;20227;-73
2022/05/24 02:15:13;;;;;;;11.32;7.07;;;;;;;;;;5046368;28;20209;-72
2022/05/24 02:17:47;;;;;;;13.13;7.70;;;;;;;;;;5051379;28;20232;-73
2022/05/24 02:20:15;;;;;;;11.25;7.65;;;;;;;;;;5051419;28;20663;-72
2022/05/24 02:22:40;;;;;;;12.50;8.82;;;;;;;;;;5052410;28;20259;-73
2022/05/24 02:25:18;;;;;;;12.23;8.60;;;;;;;;;;5050809;28;20265;-73
2022/05/24 02:27:44;;;;;;;13.77;8.43;;;;;;;;;;5047560;28;20208;-73
2022/05/24 02:30:10;;;;;;;13.63;8.50;;;;;;;;;;5048955;28;20201;-72
2022/05/24 02:32:35;;;;;;;18.75;9.70;;;;;;;;;;5046765;28;20250;-73
2022/05/24 02:35:00;;;;;;;13.00;9.02;;;;;;;;;;5055339;28;20264;-73
2022/05/24 02:37:26;;;;;;;12.88;8.35;;;;;;;;;;5052756;28;20206;-73
2022/05/24 02:42:35;;;;;;;14.40;7.93;;;;;;;;;;5037520;28;20685;-73
2022/05/24 02:45:00;;;;;;;15.73;8.48;;;;;;;;;;5043050;28;20190;-73
2022/05/24 02:47:25;;;;;;;11.05;7.38;;;;;;;;;;5049108;28;20182;-73
2022/05/24 02:49:51;;;;;;;13.48;7.95;;;;;;;;;;5048074;28;20185;-73
2022/05/24 02:52:16;;;;;;;14.00;8.33;;;;;;;;;;5051277;28;20273;-73
2022/05/24 02:54:41;;;;;;;17.03;9.00;;;;;;;;;;5030156;28;20585;-73
2022/05/24 02:57:06;;;;;;;15.20;8.77;;;;;;;;;;5043463;28;20201;-73
2022/05/24 02:59:33;;;;;;;16.80;9.15;;;;;;;;;;5026884;28;20253;-73
2022/05/24 03:01:58;;;;;;;13.10;8.80;;;;;;;;;;5051696;28;20663;-73
2022/05/24 03:04:23;;;;;;;14.90;9.05;;;;;;;;;;5049583;28;20173;-73
2022/05/24 03:09:35;;;;;;;16.80;9.20;;;;;;;;;;5039745;28;20208;-73
2022/05/24 03:14:49;;;;;;;19.03;9.83;;;;;;;;;;5046627;28;20184;-73
2022/05/24 03:17:16;;;;;;;16.17;10.53;;;;;;;;;;5047418;28;20236;-73
2022/05/24 03:19:41;;;;;;;17.83;11.80;;;;;;;;;;5034802;28;20169;-72
2022/05/24 03:22:08;;;;;;;21.87;11.20;;;;;;;;;;5033177;28;20287;-73
2022/05/24 03:24:33;;;;;;;20.67;11.90;;;;;;;;;;5051216;28;20228;-73
2022/05/24 03:26:58;;;;;;;17.97;11.77;;;;;;;;;;5050934;28;20270;-73
2022/05/24 03:29:23;;;;;;;21.93;12.93;;;;;;;;;;5047654;28;20555;-73
2022/05/24 03:31:49;;;;;;;21.10;12.23;;;;;;;;;;5049011;28;20186;-73
2022/05/24 03:34:14;;;;;;;19.97;11.83;;;;;;;;;;5052784;28;20197;-73
2022/05/24 03:36:39;;;;;;;24.70;12.83;;;;;;;;;;5048858;28;20208;-72
2022/05/24 03:39:05;;;;;;;20.65;12.35;;;;;;;;;;5046673;28;20261;-73
2022/05/24 03:41:31;;;;;;;17.85;12.40;;;;;;;;;;5050868;28;20268;-73
2022/05/24 03:43:56;;;;;;;18.15;12.27;;;;;;;;;;5028660;28;20331;-72
2022/05/24 03:46:21;;;;;;;15.70;11.75;;;;;;;;;;5034146;28;20217;-72
2022/05/24 03:48:46;;;;;;;20.33;13.00;;;;;;;;;;5050667;28;20440;-72
2022/05/24 03:51:11;;;;;;;19.67;12.30;;;;;;;;;;5049893;28;20219;-72
2022/05/24 03:53:37;;;;;;;18.35;12.88;;;;;;;;;;5048225;28;20213;-73
2022/05/24 03:56:02;;;;;;;19.73;12.80;;;;;;;;;;5030114;28;20239;-74
2022/05/24 03:58:28;;;;;;;19.90;13.05;;;;;;;;;;5026104;28;20181;-72
2022/05/24 04:00:54;;;;;;;22.53;13.63;;;;;;;;;;5047030;28;20570;-72
2022/05/24 04:03:19;;;;;;;19.05;14.10;;;;;;;;;;5050855;28;20197;-73
2022/05/24 04:05:44;;;;;;;26.97;14.20;;;;;;;;;;5051626;28;20174;-73
2022/05/24 04:08:10;;;;;;;27.03;12.90;;;;;;;;;;5049612;28;20693;-72
2022/05/24 04:10:36;;;;;;;18.90;13.47;;;;;;;;;;5045646;28;20177;-72
2022/05/24 04:13:01;;;;;;;19.55;14.45;;;;;;;;;;5028688;28;20384;-73
2022/05/24 04:15:26;;;;;;;20.33;15.03;;;;;;;;;;5047189;28;20523;-72
2022/05/24 04:17:52;;;;;;;28.33;15.87;;;;;;;;;;5049477;28;20205;-71
2022/05/24 04:20:18;;;;;;;21.60;14.97;;;;;;;;;;5049403;28;20178;-71
2022/05/24 04:22:44;;;;;;;21.53;14.90;;;;;;;;;;5051361;28;20205;-72
2022/05/24 04:25:09;;;;;;;22.07;14.50;;;;;;;;;;5047978;28;20562;-73
2022/05/24 04:27:34;;;;;;;19.53;14.03;;;;;;;;;;5044258;28;20185;-71
2022/05/24 04:29:59;;;;;;;20.77;14.20;;;;;;;;;;5040904;28;20262;-72
2022/05/24 04:32:25;;;;;;;25.13;15.07;;;;;;;;;;5046645;28;20688;-72
2022/05/24 04:34:50;;;;;;;24.63;14.93;;;;;;;;;;5050696;28;20477;-71
2022/05/24 04:37:15;;;;;;;21.93;15.37;;;;;;;;;;5043907;28;20193;-73
2022/05/24 04:39:41;;;;;;;19.03;13.87;;;;;;;;;;5042830;28;20181;-72
2022/05/24 04:42:24;;;;;;;25.80;15.40;;;;;;;;;;5039304;28;20170;-72
2022/05/24 04:44:51;;;;;;;21.30;13.47;;;;;;;;;;5034542;28;20169;-73
2022/05/24 04:47:17;;;;;;;18.53;13.33;;;;;;;;;;5050355;28;20181;-72
2022/05/24 04:49:44;;;;;;;20.43;12.77;;;;;;;;;;5046172;28;20193;-72
2022/05/24 04:52:10;;;;;;;18.43;12.33;;;;;;;;;;5049955;28;20189;-72
2022/05/24 04:54:37;;;;;;;19.77;11.80;;;;;;;;;;5047663;28;20191;-72
2022/05/24 04:57:02;;;;;;;19.47;11.30;;;;;;;;;;5026616;28;20283;-73
2022/05/24 04:59:28;;;;;;;18.13;11.07;;;;;;;;;;5048655;28;20595;-72
2022/05/24 05:01:53;;;;;;;19.37;10.30;;;;;;;;;;5038707;28;20194;-72
2022/05/24 05:04:20;;;;;;;15.90;8.40;;;;;;;;;;5039503;28;20222;-72
2022/05/24 05:06:46;;;;;;;13.03;7.70;;;;;;;;;;5036886;28;20573;-72
2022/05/24 05:09:11;;;;;;;9.90;6.93;;;;;;;;;;5047179;28;20185;-73
2022/05/24 05:11:37;;;;;;;14.37;6.67;;;;;;;;;;5048602;28;21008;-72
2022/05/24 05:14:02;;;;;;;13.17;6.40;;;;;;;;;;5048954;28;20233;-73
2022/05/24 05:16:28;;;;;;;8.47;6.20;;;;;;;;;;5040610;28;20624;-72
2022/05/24 05:18:53;;;;;;;9.40;6.27;;;;;;;;;;5033746;28;20235;-72
2022/05/24 05:21:18;;;;;;;11.17;5.97;;;;;;;;;;5036586;28;20200;-73
2022/05/24 05:23:43;;;;;;;12.30;5.73;;;;;;;;;;5044477;28;20210;-73
2022/05/24 05:26:09;;;;;;;13.40;6.00;;;;;;;;;;5047889;28;20288;-72
2022/05/24 05:28:34;;;;;;;10.67;5.40;;;;;;;;;;5046773;28;20178;-73
2022/05/24 05:31:19;;;;;;;12.73;5.57;;;;;;;;;;5028050;28;20623;-72
2022/05/24 05:33:44;;;;;;;11.50;5.90;;;;;;;;;;5013327;28;20296;-72
2022/05/24 05:36:10;;;;;;;8.97;5.80;;;;;;;;;;5005811;28;20198;-73
2022/05/24 05:38:35;;;;;;;10.95;6.18;;;;;;;;;;5010118;28;20176;-73
2022/05/24 05:41:01;;;;;;;12.25;6.70;;;;;;;;;;5010303;28;20517;-73
2022/05/24 05:43:26;;;;;;;10.73;5.83;;;;;;;;;;5025651;28;20229;-73
2022/05/24 05:45:52;;;;;;;8.40;5.90;;;;;;;;;;5024944;28;20182;-72
2022/05/24 05:48:17;;;;;;;10.23;6.07;;;;;;;;;;5011564;28;20691;-72
2022/05/24 05:50:44;;;;;;;9.90;5.70;;;;;;;;;;5035095;28;20177;-72
2022/05/24 05:53:09;;;;;;;13.32;6.10;;;;;;;;;;5016047;28;20240;-72
2022/05/24 05:55:37;;;;;;;13.07;7.07;;;;;;;;;;5016082;28;20178;-72
2022/05/24 05:58:02;;;;;;;11.88;6.55;;;;;;;;;;5018359;28;20193;-72
2022/05/24 06:00:27;;;;;;;11.18;7.38;;;;;;;;;;5010656;28;20186;-71
2022/05/24 06:02:53;;;;;;;14.43;7.00;;;;;;;;;;5022761;28;21456;-72
2022/05/24 06:05:18;;;;;;;12.40;7.25;;;;;;;;;;5026594;28;20182;-72
2022/05/24 06:07:43;;;;;;;12.50;6.83;;;;;;;;;;5004306;28;20303;-71
2022/05/24 06:10:10;;;;;;;14.07;6.80;;;;;;;;;;5013541;28;20178;-72
2022/05/24 06:12:35;;;;;;;14.80;8.50;;;;;;;;;;5022759;28;20277;-72
2022/05/24 06:15:00;;;;;;;13.80;8.20;;;;;;;;;;5039809;28;20186;-72
2022/05/24 06:17:25;;;;;;;10.43;7.17;;;;;;;;;;5035522;28;20213;-73
2022/05/24 06:19:51;;;;;;;12.00;6.80;;;;;;;;;;5026952;28;20186;-71
2022/05/24 06:22:16;;;;;;;10.30;7.23;;;;;;;;;;5031886;28;20666;-73
2022/05/24 06:24:43;;;;;;;10.30;6.78;;;;;;;;;;5044582;28;20174;-73
2022/05/24 06:27:08;;;;;;;12.63;7.20;;;;;;;;;;5028867;28;20174;-72
2022/05/24 06:29:36;;;;;;;12.93;6.85;;;;;;;;;;5007241;28;20225;-72
2022/05/24 06:32:01;;;;;;;11.48;6.90;;;;;;;;;;5034109;28;20180;-72
2022/05/24 06:34:27;;;;;;;8.82;6.45;;;;;;;;;;5047078;28;20181;-72
2022/05/24 06:36:52;;;;;;;9.20;6.40;;;;;;;;;;5045213;28;20290;-72
2022/05/24 06:39:17;;;;;;;10.18;6.57;;;;;;;;;;5042348;28;20186;-71
2022/05/24 06:41:42;;;;;;;8.40;6.40;;;;;;;;;;5040610;28;20259;-71
2022/05/24 06:44:07;;;;;;;10.47;5.70;;;;;;;;;;5048088;28;20201;-71
2022/05/24 06:46:33;;;;;;;11.63;6.00;;;;;;;;;;5052915;28;20410;-72
2022/05/24 06:48:58;;;;;;;10.32;5.18;;;;;;;;;;5024416;28;20186;-72
2022/05/24 06:51:23;;;;;;;5.63;4.53;;;;;;;;;;5039022;28;20689;-70
2022/05/24 06:53:49;;;;;;;8.38;4.82;;;;;;;;;;5037513;28;20220;-71
2022/05/24 06:56:15;;;;;;;12.88;4.85;;;;;;;;;;5042391;28;20760;-72
2022/05/24 06:58:40;;;;;;;10.45;3.97;;;;;;;;;;5047488;28;20274;-72
2022/05/24 07:03:50;;;;;;;8.20;4.05;;;;;;;;;;5037980;28;20202;-72
2022/05/24 07:06:15;;;;;;;9.60;4.22;;;;;;;;;;5041341;28;20174;-72
2022/05/24 07:08:44;;;;;;;6.90;3.90;;;;;;;;;;5021484;28;20192;-72
2022/05/24 07:11:10;;;;;;;10.38;4.38;;;;;;;;;;5051470;28;20220;-72
2022/05/24 07:13:36;;;;;;;6.68;4.03;;;;;;;;;;5045417;28;20277;-72
2022/05/24 07:16:01;;;;;;;5.75;3.53;;;;;;;;;;5038715;28;20202;-72
2022/05/24 07:18:26;;;;;;;5.57;3.45;;;;;;;;;;5035780;28;20196;-72
2022/05/24 07:20:52;;;;;;;8.52;3.70;;;;;;;;;;5051256;28;20181;-72
2022/05/24 07:23:18;;;;;;;7.40;3.38;;;;;;;;;;5052265;28;20224;-71
2022/05/24 07:25:44;;;;;;;6.13;3.45;;;;;;;;;;5049806;28;20177;-72
2022/05/24 07:28:10;;;;;;;6.63;3.28;;;;;;;;;;5045193;28;20186;-72
2022/05/24 07:30:36;;;;;;;8.45;3.58;;;;;;;;;;5050959;28;20181;-72
2022/05/24 07:33:01;;;;;;;7.43;3.40;;;;;;;;;;5050698;28;20197;-72
2022/05/24 07:35:27;;;;;;;6.47;2.92;;;;;;;;;;5050568;28;20177;-72
2022/05/24 07:37:52;;;;;;;5.28;2.90;;;;;;;;;;5045418;28;20272;-72
2022/05/24 07:45:48;;;;;;;5.53;2.70;;;;;;;;;;5047636;28;20180;-71
2022/05/24 07:48:13;;;;;;;3.90;2.28;;;;;;;;;;5051209;28;20182;-71
2022/05/24 07:50:39;;;;;;;3.50;1.95;;;;;;;;;;5050486;28;20243;-72
2022/05/24 07:53:04;;;;;;;2.58;1.63;;;;;;;;;;5051497;28;20206;-72
2022/05/24 07:55:30;;;;;;;11.77;2.33;;;;;;;;;;5051429;28;20215;-71
2022/05/24 07:57:55;;;;;;;1.70;1.60;;;;;;;;;;5047071;28;20209;-71
2022/05/24 08:00:21;;;;;;;3.88;1.98;;;;;;;;;;5049896;28;20193;-72
2022/05/24 08:02:49;;;;;;;2.25;1.95;;;;;;;;;;5033248;28;20197;-71
2022/05/24 08:05:14;;;;;;;3.40;2.05;;;;;;;;;;5050440;28;20178;-72
2022/05/24 08:07:40;;;;;;;3.67;2.40;;;;;;;;;;5048943;28;20177;-72
2022/05/24 08:10:05;;;;;;;2.90;2.10;;;;;;;;;;5049708;28;20427;-72
2022/05/24 08:12:32;;;;;;;2.55;1.70;;;;;;;;;;5048644;28;20682;-72
2022/05/24 08:14:58;;;;;;;3.70;1.75;;;;;;;;;;5048543;28;20190;-72
2022/05/24 08:17:23;;;;;;;4.20;2.25;;;;;;;;;;5049841;28;20208;-72
2022/05/24 08:19:48;;;;;;;4.22;3.15;;;;;;;;;;5042254;28;20179;-72
2022/05/24 08:22:14;;;;;;;7.05;3.08;;;;;;;;;;5035698;28;20200;-72
2022/05/24 08:24:39;;;;;;;6.32;3.75;;;;;;;;;;5033716;28;20178;-72
2022/05/24 08:27:04;;;;;;;4.53;2.25;;;;;;;;;;5040912;28;20170;-72
2022/05/24 08:29:30;;;;;;;1.08;0.73;;;;;;;;;;5043060;28;20261;-72
2022/05/24 08:31:55;;;;;;;1.63;0.80;;;;;;;;;;5044390;28;20658;-72
2022/05/24 08:34:20;;;;;;;2.28;1.10;;;;;;;;;;5054434;28;20251;-71
2022/05/24 08:36:46;;;;;;;1.42;0.90;;;;;;;;;;5051951;28;20193;-72
2022/05/24 08:39:11;;;;;;;1.77;1.20;;;;;;;;;;5044056;28;20453;-73
2022/05/24 08:41:55;;;;;;;2.83;1.10;;;;;;;;;;5051367;28;20178;-73
2022/05/24 08:49:57;;;;;;;5.20;1.02;;;;;;;;;;5049653;28;20197;-72
2022/05/24 08:52:23;;;;;;;1.70;0.90;;;;;;;;;;5049055;28;20193;-72
2022/05/24 08:54:48;;;;;;;2.45;1.20;;;;;;;;;;5037301;28;20717;-72
2022/05/24 08:57:16;;;;;;;1.52;1.42;;;;;;;;;;5050287;28;20210;-72
2022/05/24 08:59:45;;;;;;;5.40;2.28;;;;;;;;;;5050748;28;20249;-72
2022/05/24 09:02:10;;;;;;;3.67;2.15;;;;;;;;;;5050059;28;20178;-71
2022/05/24 09:04:35;;;;;;;2.78;2.50;;;;;;;;;;5044697;28;20167;-71
2022/05/24 09:07:03;;;;;;;2.53;1.85;;;;;;;;;;5041245;28;20231;-72
2022/05/24 09:09:34;;;;;;;3.95;2.83;;;;;;;;;;5041219;28;20237;-72
2022/05/24 09:12:02;;;;;;;4.90;2.60;;;;;;;;;;5040513;28;20185;-72
2022/05/24 09:14:33;;;;;;;2.40;2.20;;;;;;;;;;5045501;28;20674;-73
2022/05/24 09:17:04;;;;;;;2.40;1.23;;;;;;;;;;5044824;28;20205;-73
2022/05/24 09:19:34;;;;;;;3.35;0.95;;;;;;;;;;5047844;28;20645;-71
2022/05/24 09:22:01;;;;;;;1.95;0.80;;;;;;;;;;5049676;28;20655;-71
2022/05/24 09:24:31;;;;;;;2.45;0.80;;;;;;;;;;5043365;28;20804;-74
2022/05/24 09:27:05;;;;;;;2.25;0.80;;;;;;;;;;5029717;28;20309;-71
2022/05/24 09:29:31;;;;;;;4.28;1.00;;;;;;;;;;5022115;28;20297;-74
2022/05/24 09:31:57;;;;;;;1.58;0.88;;;;;;;;;;5011348;28;20200;-73
2022/05/24 09:34:30;;;;;;;1.38;1.25;;;;;;;;;;5027094;28;20205;-71
2022/05/24 09:36:57;;;;;;;3.55;1.42;;;;;;;;;;5022687;28;20229;-71
2022/05/24 09:39:24;;;;;;;4.53;1.73;;;;;;;;;;5024180;28;20867;-71
2022/05/24 09:41:54;;;;;;;2.22;1.10;;;;;;;;;;5023338;28;20739;-71
2022/05/24 09:44:19;;;;;;;1.83;1.48;;;;;;;;;;5006153;28;20201;-70
2022/05/24 09:46:44;;;;;;;3.78;0.90;;;;;;;;;;5022481;28;20263;-71
2022/05/24 09:49:13;;;;;;;3.38;1.30;;;;;;;;;;5022486;28;20660;-71
2022/05/24 09:51:40;;;;;;;2.53;1.00;;;;;;;;;;5024423;28;20251;-71
2022/05/24 09:54:13;;;;;;;1.92;0.85;;;;;;;;;;5023810;28;20241;-71
2022/05/24 09:56:38;;;;;;;1.52;0.60;;;;;;;;;;5022552;28;20296;-72
2022/05/24 09:59:05;;;;;;;1.73;0.60;;;;;;;;;;5021264;28;20639;-72
2022/05/24 10:01:36;;;;;;;1.55;1.00;;;;;;;;;;5007956;28;22200;-72
2022/05/24 10:04:19;;;;;;;3.00;1.08;;;;;;;;;;5024016;28;20206;-72
2022/05/24 10:06:55;;;;;;;1.43;0.80;;;;;;;;;;5030776;28;20231;-71
2022/05/24 10:09:20;;;;;;;2.55;1.08;;;;;;;;;;5047593;28;20197;-72
2022/05/24 10:11:57;;;;;;;1.10;0.80;;;;;;;;;;5037396;28;20213;-72
2022/05/24 10:14:55;;;;;;;3.88;1.40;;;;;;;;;;5029427;28;20208;-72
2022/05/24 10:17:29;;;;;;;1.10;0.82;;;;;;;;;;4982381;28;20226;-72
2022/05/24 10:20:13;;;;;;;3.90;1.10;;;;;;;;;;5024355;28;20263;-72
2022/05/24 10:22:49;;;;;;;2.53;1.35;;;;;;;;;;5026966;28;20671;-72
2022/05/24 10:25:17;;;;;;;2.40;1.50;;;;;;;;;;5022563;28;20280;-72
2022/05/24 10:27:46;;;;;;;5.28;2.05;;;;;;;;;;5023959;28;20255;-72
2022/05/24 10:30:19;;;;;;;8.32;2.28;;;;;;;;;;5026320;28;20263;-72
2022/05/24 10:38:50;;;;;;;2.92;2.00;;;;;;;;;;5029998;28;20208;-73
2022/05/24 10:41:19;;;;;;;2.30;1.75;;;;;;;;;;5026417;28;20183;-73
2022/05/24 10:43:54;;;;;;;2.35;1.60;;;;;;;;;;5026171;28;20718;-73
2022/05/24 10:46:22;;;;;;;6.35;1.90;;;;;;;;;;5029530;28;20185;-73
2022/05/24 10:48:58;;;;;;;4.13;1.90;;;;;;;;;;5008158;28;20246;-73
2022/05/24 10:51:28;;;;;;;4.38;2.33;;;;;;;;;;5047737;28;20209;-73
2022/05/24 10:53:56;;;;;;;4.40;2.85;;;;;;;;;;5028845;28;20638;-72
2022/05/24 10:56:24;;;;;;;3.60;2.38;;;;;;;;;;5025607;28;20583;-70
2022/05/24 10:58:50;;;;;;;3.10;1.90;;;;;;;;;;5026106;28;20188;-70
2022/05/24 11:01:37;;;;;;;2.67;1.73;;;;;;;;;;5024586;28;20698;-69
2022/05/24 11:04:09;;;;;;;3.35;1.63;;;;;;;;;;5023527;28;20205;-70
2022/05/24 11:06:44;;;;;;;5.00;1.70;;;;;;;;;;5025781;28;20205;-71
2022/05/24 11:09:18;;;;;;;2.97;1.85;;;;;;;;;;5029671;28;20185;-70
2022/05/24 11:11:46;;;;;;;2.25;1.40;;;;;;;;;;5027939;28;20287;-70
2022/05/24 11:14:29;;;;;;;5.43;1.50;;;;;;;;;;5035233;28;20208;-70
2022/05/24 11:16:56;;;;;;;4.28;1.58;;;;;;;;;;5025814;28;20251;-71
2022/05/24 11:19:25;;;;;;;3.10;1.20;;;;;;;;;;5025144;28;22102;-70
2022/05/24 11:22:09;;;;;;;2.38;1.45;;;;;;;;;;5025928;28;21100;-70
2022/05/24 11:24:48;;;;;;;5.50;1.70;;;;;;;;;;5008636;28;20243;-70
2022/05/24 11:27:14;;;;;;;2.83;1.30;;;;;;;;;;5026952;28;20208;-70
2022/05/24 11:29:42;;;;;;;5.95;1.70;;;;;;;;;;5023323;28;20182;-71
2022/05/24 11:32:08;;;;;;;3.95;1.55;;;;;;;;;;5025681;28;20811;-70
2022/05/24 11:34:35;;;;;;;8.65;1.95;;;;;;;;;;5011471;28;20194;-70
2022/05/24 11:37:00;;;;;;;3.40;1.40;;;;;;;;;;5027361;28;20861;-70
2022/05/24 11:39:28;;;;;;;2.03;1.50;;;;;;;;;;5028659;28;20188;-71
2022/05/24 11:42:16;;;;;;;5.80;1.90;;;;;;;;;;5026499;28;20187;-70
2022/05/24 11:44:42;;;;;;;3.03;1.42;;;;;;;;;;5015814;28;20198;-70
2022/05/24 11:47:07;;;;;;;4.03;2.10;;;;;;;;;;5025336;28;20537;-71
2022/05/24 11:49:32;;;;;;;3.33;1.25;;;;;;;;;;5026246;28;20510;-70
2022/05/24 11:51:58;;;;;;;1.48;1.20;;;;;;;;;;5025686;28;20200;-71
2022/05/24 11:54:23;;;;;;;3.08;1.75;;;;;;;;;;5034441;28;20602;-71
2022/05/24 11:57:14;;;;;;;5.17;1.80;;;;;;;;;;5024186;28;20407;-71
2022/05/24 11:59:39;;;;;;;3.97;1.50;;;;;;;;;;5024134;28;20442;-71
2022/05/24 12:07:53;;;;;;;3.45;1.75;;;;;;;;;;5025500;28;20181;-71
2022/05/24 12:08:37;;;;;;;3.15;1.40;;;;;;;;;;5028561;28;20196;-71
2022/05/24 12:11:05;;;;;;;2.97;1.40;;;;;;;;;;5022390;28;20190;-71
2022/05/24 12:13:30;;;;;;;2.40;1.58;;;;;;;;;;5030827;28;20213;-70
2022/05/24 12:15:57;;;;;;;3.50;2.03;;;;;;;;;;5030953;28;20201;-71
2022/05/24 12:18:34;;;;;;;3.58;1.98;;;;;;;;;;5022822;28;20187;-70
2022/05/24 12:20:59;;;;;;;4.97;2.15;;;;;;;;;;5024279;28;20272;-71
2022/05/24 12:23:31;;;;;;;3.83;2.00;;;;;;;;;;5006980;28;20572;-70
2022/05/24 12:26:03;;;;;;;2.92;1.20;;;;;;;;;;5024342;28;20288;-71
2022/05/24 12:28:41;;;;;;;2.95;0.80;;;;;;;;;;5024188;28;20686;-71
2022/05/24 12:31:12;;;;;;;3.53;0.95;;;;;;;;;;5025714;28;20213;-71
2022/05/24 12:33:41;;;;;;;1.85;0.90;;;;;;;;;;5031731;28;20237;-69
2022/05/24 12:36:06;;;;;;;0.82;0.63;;;;;;;;;;5024624;28;20170;-69
2022/05/24 12:38:32;;;;;;;1.73;0.90;;;;;;;;;;5031785;28;20185;-70
2022/05/24 12:41:13;;;;;;;1.85;0.75;;;;;;;;;;5028512;28;20421;-71
2022/05/24 12:43:47;;;;;;;2.35;0.77;;;;;;;;;;5007122;28;20198;-70
2022/05/24 12:46:14;;;;;;;2.83;0.85;;;;;;;;;;5022225;28;22077;-70
2022/05/24 12:48:39;;;;;;;2.22;1.10;;;;;;;;;;5023487;28;20197;-71
2022/05/24 12:51:07;;;;;;;5.83;1.27;;;;;;;;;;5024239;28;20216;-70
2022/05/24 12:53:33;;;;;;;2.45;0.77;;;;;;;;;;5025693;28;20447;-71
2022/05/24 12:56:05;;;;;;;3.58;0.90;;;;;;;;;;5046168;28;20170;-70
2022/05/24 12:58:34;;;;;;;5.90;1.38;;;;;;;;;;5023616;28;20178;-70
2022/05/24 13:01:18;;;;;;;1.27;0.90;;;;;;;;;;5010153;28;20186;-70
2022/05/24 13:03:51;;;;;;;3.05;0.80;;;;;;;;;;5024181;28;20680;-70
2022/05/24 13:06:27;;;;;;;1.75;0.70;;;;;;;;;;5025316;28;20174;-71
2022/05/24 13:09:12;;;;;;;1.98;0.60;;;;;;;;;;5027294;28;20651;-70
2022/05/24 13:11:38;;;;;;;3.22;0.65;;;;;;;;;;5024941;28;20586;-71
2022/05/24 13:14:04;;;;;;;0.95;0.60;;;;;;;;;;5036172;28;20193;-70
2022/05/24 13:16:29;;;;;;;1.70;0.55;;;;;;;;;;5023742;28;20220;-70
2022/05/24 13:18:55;;;;;;;0.98;0.50;;;;;;;;;;5033814;28;20283;-71
2022/05/24 13:21:24;;;;;;;0.73;0.40;;;;;;;;;;5026781;28;20613;-70
2022/05/24 13:24:05;;;;;;;1.48;0.60;;;;;;;;;;5022640;28;20198;-70
2022/05/24 13:26:30;;;;;;;1.30;0.50;;;;;;;;;;5002104;28;21964;-70
2022/05/24 13:28:56;;;;;;;1.17;0.70;;;;;;;;;;5023963;28;20662;-71
2022/05/24 13:34:16;;;;;;;4.05;0.82;;;;;;;;;;5022651;28;20259;-71
2022/05/24 13:36:43;;;;;;;2.15;0.50;;;;;;;;;;5024342;28;20908;-69
2022/05/24 13:39:31;;;;;;;1.42;0.40;;;;;;;;;;5038936;28;20202;-70
2022/05/24 13:42:02;;;;;;;1.13;0.57;;;;;;;;;;5021676;28;20190;-69
2022/05/24 13:44:29;;;;;;;2.17;0.68;;;;;;;;;;5022525;28;20187;-70
2022/05/24 13:47:00;;;;;;;0.93;0.55;;;;;;;;;;5024970;28;20477;-69
2022/05/24 13:49:27;;;;;;;0.40;0.40;;;;;;;;;;5023753;28;20186;-70
2022/05/24 13:51:52;;;;;;;2.42;0.55;;;;;;;;;;5030741;28;20613;-69
2022/05/24 13:54:34;;;;;;;1.23;0.50;;;;;;;;;;5023822;28;20246;-70
2022/05/24 13:57:00;;;;;;;2.80;0.70;;;;;;;;;;5022130;28;20208;-70
2022/05/24 13:59:26;;;;;;;0.52;0.43;;;;;;;;;;5023006;28;20178;-70
2022/05/24 14:01:55;;;;;;;1.45;0.68;;;;;;;;;;5025606;28;20189;-70
2022/05/24 14:04:22;;;;;;;1.77;0.60;;;;;;;;;;5026933;28;20202;-69
2022/05/24 14:06:58;;;;;;;0.88;0.70;;;;;;;;;;5027918;28;20198;-69
2022/05/24 14:09:23;;;;;;;1.75;0.80;;;;;;;;;;5032294;28;20249;-69
2022/05/24 14:11:56;;;;;;;2.83;0.50;;;;;;;;;;5027331;28;20182;-70
2022/05/24 14:14:22;;;;;;;0.68;0.40;;;;;;;;;;5035890;28;20255;-70
2022/05/24 14:16:48;;;;;;;1.27;0.70;;;;;;;;;;5026250;28;20213;-70
2022/05/24 14:19:13;;;;;;;3.38;0.43;;;;;;;;;;5025472;28;20248;-70
2022/05/24 14:21:42;;;;;;;2.35;0.70;;;;;;;;;;5013069;28;20178;-70
2022/05/24 14:24:12;;;;;;;1.38;0.60;;;;;;;;;;5028215;28;20721;-70
2022/05/24 14:26:38;;;;;;;2.10;0.70;;;;;;;;;;5027536;28;20268;-70
2022/05/24 14:29:04;;;;;;;1.73;0.60;;;;;;;;;;5028465;28;20774;-69
2022/05/24 14:31:29;;;;;;;1.60;0.70;;;;;;;;;;5028330;28;20261;-69
2022/05/24 14:33:54;;;;;;;3.95;1.00;;;;;;;;;;5028763;28;20252;-70
2022/05/24 14:36:19;;;;;;;0.53;0.47;;;;;;;;;;5026154;28;20212;-70
2022/05/24 14:38:46;;;;;;;1.83;0.60;;;;;;;;;;5029553;28;20616;-69
2022/05/24 14:41:17;;;;;;;2.35;0.90;;;;;;;;;;5027144;28;20495;-69
2022/05/24 14:43:46;;;;;;;1.38;1.15;;;;;;;;;;5027260;28;20217;-69
2022/05/24 14:46:12;;;;;;;1.50;0.70;;;;;;;;;;5024398;28;20182;-69
2022/05/24 14:48:37;;;;;;;1.55;0.80;;;;;;;;;;5025587;28;20178;-70
2022/05/24 14:51:04;;;;;;;4.17;0.77;;;;;;;;;;5026762;28;20667;-70
2022/05/24 14:53:31;;;;;;;3.53;1.15;;;;;;;;;;5026087;28;20458;-69
2022/05/24 14:55:56;;;;;;;2.25;0.57;;;;;;;;;;5026890;28;20182;-70
2022/05/24 14:58:21;;;;;;;2.47;0.63;;;;;;;;;;5026163;28;20241;-69
2022/05/24 15:00:47;;;;;;;0.90;0.73;;;;;;;;;;5030792;28;20430;-69
2022/05/24 15:03:12;;;;;;;1.60;0.50;;;;;;;;;;5043813;28;20458;-70
2022/05/24 15:05:37;;;;;;;1.27;0.70;;;;;;;;;;5027030;28;20948;-69
2022/05/24 15:16:19;;;;;;;1.65;0.68;;;;;;;;;;5025896;28;20757;-69
2022/05/24 15:18:45;;;;;;;1.47;0.60;;;;;;;;;;5025869;28;20177;-69
2022/05/24 15:21:10;;;;;;;3.40;0.73;;;;;;;;;;5026882;28;20426;-69
2022/05/24 15:23:37;;;;;;;4.35;0.90;;;;;;;;;;5026679;28;20198;-69
2022/05/24 15:26:06;;;;;;;3.40;0.85;;;;;;;;;;5028259;28;20193;-70
2022/05/24 15:28:32;;;;;;;1.23;0.50;;;;;;;;;;5028126;28;20182;-70